createdAt,value
2023-03-08T00:01:13.346Z,27.40
2023-03-08T00:06:08.490Z,27.30
2023-03-08T00:08:35.130Z,26.77
2023-03-08T00:11:08.402Z,25.63
2023-03-08T00:13:35.885Z,26.05
2023-03-08T00:16:04.479Z,25.95
2023-03-08T00:18:31.604Z,24.73
2023-03-08T00:21:02.489Z,23.88
2023-03-08T00:23:29.063Z,25.58
2023-03-08T00:25:55.902Z,22.70
2023-03-08T00:28:23.408Z,17.92
2023-03-08T00:31:00.079Z,18.58
2023-03-08T00:33:28.206Z,19.25
2023-03-08T00:36:00.736Z,17.83
2023-03-08T00:38:31.240Z,11.85
2023-03-08T00:40:58.084Z,14.52
2023-03-08T00:43:25.294Z,15.02
2023-03-08T00:45:53.268Z,11.40
2023-03-08T00:48:22.469Z,11.77
2023-03-08T00:50:51.375Z,11.93
2023-03-08T00:53:17.996Z,15.60
2023-03-08T00:55:49.834Z,11.52
2023-03-08T00:58:17.241Z,12.75
2023-03-08T01:00:44.312Z,12.13
2023-03-08T01:03:10.980Z,12.90
2023-03-08T01:05:46.189Z,14.60
2023-03-08T01:08:13.809Z,16.02
2023-03-08T01:10:40.463Z,20.05
2023-03-08T01:13:08.370Z,16.13
2023-03-08T01:15:37.374Z,13.13
2023-03-08T01:18:06.206Z,14.35
2023-03-08T01:20:33.111Z,16.92
2023-03-08T01:23:00.386Z,12.90
2023-03-08T01:25:27.516Z,13.10
2023-03-08T01:27:54.104Z,14.05
2023-03-08T01:30:20.972Z,16.13
2023-03-08T01:32:47.626Z,14.13
2023-03-08T01:35:14.437Z,17.17
2023-03-08T01:37:41.210Z,15.27
2023-03-08T01:40:09.319Z,14.32
2023-03-08T01:42:38.879Z,17.35
2023-03-08T01:45:26.536Z,16.38
2023-03-08T01:47:53.303Z,15.20
2023-03-08T01:50:25.706Z,16.50
2023-03-08T01:52:55.406Z,16.75
2023-03-08T01:55:22.345Z,15.73
2023-03-08T01:57:54.030Z,20.08
2023-03-08T02:00:23.161Z,20.05
2023-03-08T02:02:59.639Z,19.48
2023-03-08T02:05:27.671Z,22.73
2023-03-08T02:08:00.336Z,19.65
2023-03-08T02:10:32.221Z,23.90
2023-03-08T02:12:58.861Z,20.52
2023-03-08T02:15:25.488Z,24.50
2023-03-08T02:17:55.598Z,21.58
2023-03-08T02:20:32.067Z,22.45
2023-03-08T02:23:22.128Z,21.67
2023-03-08T02:25:57.096Z,22.42
2023-03-08T02:28:26.364Z,21.42
2023-03-08T02:30:54.444Z,23.35
2023-03-08T02:33:21.635Z,21.65
2023-03-08T02:35:50.185Z,23.80
2023-03-08T02:38:18.570Z,20.27
2023-03-08T02:40:45.505Z,22.42
2023-03-08T02:43:12.147Z,26.10
2023-03-08T02:45:39.887Z,20.15
2023-03-08T02:48:08.476Z,24.40
2023-03-08T02:50:36.477Z,24.40
2023-03-08T02:53:04.441Z,20.08
2023-03-08T02:55:36.018Z,24.00
2023-03-08T02:58:08.389Z,21.52
2023-03-08T03:00:35.443Z,21.60
2023-03-08T03:03:02.076Z,20.77
2023-03-08T03:05:28.796Z,24.15
2023-03-08T03:07:58.627Z,26.37
2023-03-08T03:10:27.990Z,26.42
2023-03-08T03:12:55.499Z,22.38
2023-03-08T03:15:25.669Z,26.30
2023-03-08T03:17:56.869Z,29.10
2023-03-08T03:20:23.521Z,30.55
2023-03-08T03:22:50.176Z,28.48
2023-03-08T03:25:19.173Z,25.77
2023-03-08T03:27:47.479Z,31.25
2023-03-08T03:30:18.342Z,32.37
2023-03-08T03:32:46.199Z,33.95
2023-03-08T03:35:16.782Z,31.95
2023-03-08T03:37:43.752Z,34.60
2023-03-08T03:40:14.157Z,32.40
2023-03-08T03:42:43.360Z,34.00
2023-03-08T03:45:13.257Z,34.42
2023-03-08T03:47:42.726Z,39.03
2023-03-08T03:50:10.829Z,34.13
2023-03-08T03:53:00.203Z,37.85
2023-03-08T03:55:27.777Z,39.08
2023-03-08T03:57:54.874Z,42.50
2023-03-08T04:00:22.199Z,40.20
2023-03-08T04:02:59.289Z,39.47
2023-03-08T04:05:27.387Z,42.35
2023-03-08T04:07:54.470Z,39.75
2023-03-08T04:10:24.738Z,37.38
2023-03-08T04:12:53.084Z,44.45
2023-03-08T04:15:21.463Z,44.20
2023-03-08T04:17:48.283Z,38.47
2023-03-08T04:20:15.363Z,38.78
2023-03-08T04:22:49.930Z,38.88
2023-03-08T04:25:23.085Z,38.38
2023-03-08T04:27:55.508Z,38.03
2023-03-08T04:30:22.085Z,39.65
2023-03-08T04:32:49.504Z,34.65
2023-03-08T04:35:16.359Z,39.58
2023-03-08T04:37:46.814Z,36.78
2023-03-08T04:40:16.620Z,38.00
2023-03-08T04:42:52.828Z,37.53
2023-03-08T04:45:25.204Z,40.67
2023-03-08T04:47:54.363Z,39.92
2023-03-08T04:50:21.038Z,38.58
2023-03-08T04:52:47.843Z,45.50
2023-03-08T04:55:14.579Z,51.40
2023-03-08T04:57:41.259Z,49.95
2023-03-08T05:00:11.070Z,50.42
2023-03-08T05:02:39.410Z,53.20
2023-03-08T05:05:11.945Z,51.45
2023-03-08T05:07:38.910Z,51.90
2023-03-08T05:10:05.805Z,53.75
2023-03-08T05:12:32.369Z,54.88
2023-03-08T05:15:00.592Z,53.60
2023-03-08T05:17:27.644Z,54.90
2023-03-08T05:19:55.055Z,54.47
2023-03-08T05:22:27.246Z,56.42
2023-03-08T05:24:56.715Z,58.40
2023-03-08T05:27:24.132Z,53.80
2023-03-08T05:29:52.670Z,54.97
2023-03-08T05:32:19.331Z,52.90
2023-03-08T05:34:45.926Z,53.45
2023-03-08T05:37:18.964Z,54.65
2023-03-08T05:39:48.202Z,58.60
2023-03-08T05:42:20.434Z,57.58
2023-03-08T05:44:47.412Z,54.22
2023-03-08T05:47:18.245Z,58.78
2023-03-08T05:49:44.952Z,53.88
2023-03-08T05:52:12.391Z,61.78
2023-03-08T05:54:40.075Z,59.53
2023-03-08T05:57:11.206Z,55.63
2023-03-08T05:59:38.359Z,64.82
2023-03-08T06:02:07.511Z,56.35
2023-03-08T06:04:39.097Z,58.20
2023-03-08T06:07:05.745Z,56.67
2023-03-08T06:09:36.999Z,60.97
2023-03-08T06:12:04.243Z,59.22
2023-03-08T06:14:30.986Z,58.45
2023-03-08T06:16:57.813Z,59.35
2023-03-08T06:19:27.537Z,61.72
2023-03-08T06:21:56.340Z,62.78
2023-03-08T06:24:23.374Z,59.72
2023-03-08T06:26:50.571Z,57.67
2023-03-08T06:29:17.273Z,72.57
2023-03-08T06:31:44.581Z,76.82
2023-03-08T06:34:12.923Z,78.25
2023-03-08T06:36:40.457Z,80.97
2023-03-08T06:39:07.134Z,79.60
2023-03-08T06:41:33.893Z,76.90
2023-03-08T06:44:02.346Z,75.57
2023-03-08T06:46:29.094Z,75.35
2023-03-08T06:48:55.996Z,74.78
2023-03-08T06:51:23.141Z,78.70
2023-03-08T06:53:50.293Z,75.80
2023-03-08T06:56:20.527Z,75.35
2023-03-08T06:58:47.216Z,85.18
2023-03-08T07:01:14.110Z,79.97
2023-03-08T07:03:41.758Z,80.13
2023-03-08T07:06:09.872Z,80.68
2023-03-08T07:08:38.253Z,90.15
2023-03-08T07:11:06.519Z,89.30
2023-03-08T07:13:33.143Z,87.05
2023-03-08T07:15:59.813Z,83.65
2023-03-08T07:18:26.553Z,82.60
2023-03-08T07:20:55.655Z,87.50
2023-03-08T07:23:22.485Z,84.05
2023-03-08T07:25:49.077Z,83.35
2023-03-08T07:28:15.639Z,91.07
2023-03-08T07:30:50.798Z,84.85
2023-03-08T07:33:19.641Z,84.30
2023-03-08T07:35:46.702Z,82.03
2023-03-08T07:38:13.567Z,80.38
2023-03-08T07:40:40.405Z,81.13
2023-03-08T07:43:07.498Z,80.82
2023-03-08T07:45:48.894Z,80.22
2023-03-08T07:48:15.815Z,86.40
2023-03-08T07:50:42.418Z,85.97
2023-03-08T07:53:09.150Z,82.18
2023-03-08T07:55:38.136Z,83.00
2023-03-08T07:58:04.797Z,84.35
2023-03-08T08:00:31.404Z,79.22
2023-03-08T08:02:57.952Z,90.82
2023-03-08T08:05:24.735Z,84.78
2023-03-08T08:07:51.346Z,80.97
2023-03-08T08:10:18.061Z,78.75
2023-03-08T08:12:44.738Z,82.13
2023-03-08T08:15:11.912Z,84.35
2023-03-08T08:17:38.568Z,77.63
2023-03-08T08:20:08.042Z,81.93
2023-03-08T08:22:36.354Z,81.85
2023-03-08T08:25:07.653Z,77.45
2023-03-08T08:27:35.123Z,73.53
2023-03-08T08:30:03.129Z,76.75
2023-03-08T08:32:29.789Z,76.20
2023-03-08T08:34:56.877Z,77.80
2023-03-08T08:37:24.366Z,72.82
2023-03-08T08:39:50.994Z,69.32
2023-03-08T08:42:17.529Z,72.85
2023-03-08T08:44:44.310Z,68.00
2023-03-08T08:47:10.865Z,70.55
2023-03-08T08:49:37.518Z,64.00
2023-03-08T08:52:04.400Z,51.95
2023-03-08T08:54:31.160Z,57.67
2023-03-08T08:56:57.735Z,54.28
2023-03-08T08:59:24.358Z,47.25
2023-03-08T09:01:50.966Z,43.78
2023-03-08T09:04:17.810Z,45.72
2023-03-08T09:06:44.484Z,44.13
2023-03-08T09:09:11.295Z,44.92
2023-03-08T09:11:52.162Z,49.10
2023-03-08T09:14:21.073Z,45.67
2023-03-08T09:16:47.724Z,42.28
2023-03-08T09:19:15.477Z,40.47
2023-03-08T09:21:42.149Z,43.83
2023-03-08T09:24:10.379Z,41.75
2023-03-08T09:26:37.019Z,41.50
2023-03-08T09:29:07.679Z,37.65
2023-03-08T09:31:36.902Z,45.08
2023-03-08T09:34:09.234Z,35.83
2023-03-08T09:36:41.984Z,36.60
2023-03-08T09:39:11.123Z,33.10
2023-03-08T09:41:49.459Z,30.42
2023-03-08T09:44:44.014Z,34.35
2023-03-08T09:47:22.916Z,32.30
2023-03-08T09:49:54.318Z,35.35
2023-03-08T09:52:39.270Z,29.50
2023-03-08T09:55:16.962Z,29.38
2023-03-08T09:57:52.740Z,28.88
2023-03-08T10:00:23.505Z,31.25
2023-03-08T10:03:22.427Z,30.83
2023-03-08T10:06:20.955Z,29.27
2023-03-08T10:09:02.146Z,28.07
2023-03-08T10:11:33.003Z,28.05
2023-03-08T10:14:09.211Z,31.35
2023-03-08T10:16:43.653Z,29.38
2023-03-08T10:19:10.157Z,27.00
2023-03-08T10:21:38.853Z,24.63
2023-03-08T10:24:15.830Z,21.93
2023-03-08T10:26:43.834Z,25.80
2023-03-08T10:29:14.397Z,27.25
2023-03-08T10:31:46.983Z,26.50
2023-03-08T10:34:29.895Z,23.48
2023-03-08T10:37:06.687Z,26.17
2023-03-08T10:39:35.884Z,23.75
2023-03-08T10:42:13.525Z,24.85
2023-03-08T10:44:55.057Z,27.80
2023-03-08T10:47:31.148Z,22.63
2023-03-08T10:50:06.775Z,20.58
2023-03-08T10:52:33.377Z,16.73
2023-03-08T10:55:14.723Z,14.52
2023-03-08T10:57:48.373Z,20.73
2023-03-08T11:00:19.749Z,17.92
2023-03-08T11:02:49.369Z,18.20
2023-03-08T11:08:00.530Z,16.55
2023-03-08T11:10:29.160Z,21.67
2023-03-08T11:13:16.799Z,18.87
2023-03-08T11:15:54.356Z,18.83
2023-03-08T11:18:30.753Z,18.50
2023-03-08T11:21:06.056Z,17.60
2023-03-08T11:23:41.701Z,17.30
2023-03-08T11:26:40.397Z,18.15
2023-03-08T11:29:15.966Z,13.45
2023-03-08T11:32:10.735Z,15.10
2023-03-08T11:34:50.825Z,24.75
2023-03-08T11:37:31.528Z,16.35
2023-03-08T11:40:21.891Z,16.35
2023-03-08T11:43:21.183Z,11.88
2023-03-08T11:46:15.527Z,12.80
2023-03-08T11:48:48.236Z,12.32
2023-03-08T11:51:37.725Z,7.03
2023-03-08T11:54:25.667Z,9.73
2023-03-08T11:56:58.424Z,8.85
2023-03-08T11:59:39.828Z,10.93
2023-03-08T12:02:06.326Z,10.95
2023-03-08T12:05:03.982Z,9.25
2023-03-08T12:07:55.462Z,7.85
2023-03-08T12:10:26.043Z,7.55
2023-03-08T12:13:01.462Z,7.75
2023-03-08T12:15:30.966Z,10.32
2023-03-08T12:18:06.595Z,7.25
2023-03-08T12:20:39.636Z,9.35
2023-03-08T12:23:15.300Z,8.05
2023-03-08T12:25:45.099Z,7.90
2023-03-08T12:28:24.391Z,8.60
2023-03-08T12:31:26.580Z,6.97
2023-03-08T12:33:57.635Z,6.15
2023-03-08T12:36:37.804Z,6.47
2023-03-08T12:39:27.517Z,5.82
2023-03-08T12:42:28.727Z,6.80
2023-03-08T12:45:20.153Z,5.25
2023-03-08T12:48:00.511Z,5.38
2023-03-08T12:50:27.603Z,7.93
2023-03-08T12:52:56.062Z,5.55
2023-03-08T12:55:31.853Z,7.28
2023-03-08T12:58:01.995Z,7.53
2023-03-08T13:00:37.563Z,6.68
2023-03-08T13:03:29.013Z,6.80
2023-03-08T13:05:56.612Z,7.28
2023-03-08T13:08:35.001Z,10.90
2023-03-08T13:11:08.947Z,6.88
2023-03-08T13:13:44.677Z,6.72
2023-03-08T13:16:29.715Z,6.05
2023-03-08T13:19:27.458Z,6.97
2023-03-08T13:22:17.081Z,5.72
2023-03-08T13:24:56.488Z,5.70
2023-03-08T13:30:18.765Z,4.22
2023-03-08T13:32:45.526Z,8.40
2023-03-08T13:35:16.695Z,3.97
2023-03-08T13:37:43.545Z,4.15
2023-03-08T13:40:19.080Z,4.13
2023-03-08T13:42:59.668Z,3.88
2023-03-08T13:45:26.785Z,4.95
2023-03-08T13:47:56.344Z,3.78
2023-03-08T13:53:10.256Z,9.38
2023-03-08T13:55:44.513Z,6.97
2023-03-08T13:58:27.823Z,6.72
2023-03-08T14:01:12.709Z,2.95
2023-03-08T14:03:40.903Z,5.20
2023-03-08T14:06:23.873Z,8.90
2023-03-08T14:08:51.839Z,3.92
2023-03-08T14:11:25.016Z,8.15
2023-03-08T14:13:54.883Z,8.57
2023-03-08T14:16:26.770Z,5.93
2023-03-08T14:18:53.578Z,8.00
2023-03-08T14:21:23.554Z,4.75
2023-03-08T14:23:53.492Z,15.52
2023-03-08T14:26:40.586Z,8.80
2023-03-08T14:29:26.272Z,7.82
2023-03-08T14:31:52.901Z,8.05
2023-03-08T14:34:23.587Z,8.18
2023-03-08T14:37:22.268Z,9.32
2023-03-08T14:39:51.051Z,9.97
2023-03-08T14:42:30.967Z,6.45
2023-03-08T14:45:04.478Z,11.20
2023-03-08T14:47:35.684Z,16.45
2023-03-08T14:50:24.230Z,6.82
2023-03-08T14:52:53.782Z,9.30
2023-03-08T14:57:50.498Z,9.30
2023-03-08T15:00:18.174Z,9.52
2023-03-08T15:02:44.825Z,7.45
2023-03-08T15:05:28.031Z,7.93
2023-03-08T15:07:58.160Z,8.55
2023-03-08T15:10:37.723Z,6.60
2023-03-08T15:15:32.137Z,11.52
2023-03-08T15:17:58.681Z,6.88
2023-03-08T15:20:25.521Z,7.18
2023-03-08T15:23:05.252Z,7.20
2023-03-08T15:25:36.229Z,7.35
2023-03-08T15:28:04.401Z,6.60
2023-03-08T15:30:32.487Z,8.15
2023-03-08T15:33:00.000Z,6.90
2023-03-08T15:35:27.078Z,7.82
2023-03-08T15:37:53.834Z,7.72
2023-03-08T15:40:24.093Z,7.47
2023-03-08T15:42:50.759Z,7.25
2023-03-08T15:45:17.643Z,9.00
2023-03-08T15:47:44.432Z,10.38
2023-03-08T15:50:17.459Z,7.00
2023-03-08T15:52:45.175Z,24.52
2023-03-08T15:55:15.116Z,26.50
2023-03-08T15:57:41.970Z,17.58
2023-03-08T16:00:12.751Z,10.50
2023-03-08T16:02:40.049Z,13.10
2023-03-08T16:05:08.541Z,10.48
2023-03-08T16:07:36.153Z,13.13
2023-03-08T16:10:05.402Z,10.25
2023-03-08T16:12:31.921Z,9.88
2023-03-08T16:14:58.588Z,9.85
2023-03-08T16:17:28.540Z,11.85
2023-03-08T16:19:55.102Z,12.07
2023-03-08T16:22:22.111Z,12.45
2023-03-08T16:24:49.156Z,11.43
2023-03-08T16:27:15.866Z,12.40
2023-03-08T16:29:42.610Z,13.77
2023-03-08T16:32:14.898Z,12.32
2023-03-08T16:34:41.478Z,10.95
2023-03-08T16:37:08.173Z,13.05
2023-03-08T16:39:34.739Z,9.32
2023-03-08T16:42:01.625Z,10.77
2023-03-08T16:44:30.400Z,10.13
2023-03-08T16:46:57.020Z,11.57
2023-03-08T16:49:28.201Z,21.98
2023-03-08T16:51:55.852Z,14.48
2023-03-08T16:54:23.221Z,17.58
2023-03-08T16:56:50.532Z,21.02
2023-03-08T16:59:17.186Z,17.42
2023-03-08T17:01:44.457Z,16.70
2023-03-08T17:04:11.500Z,13.57
2023-03-08T17:06:39.171Z,13.20
2023-03-08T17:09:06.620Z,12.30
2023-03-08T17:11:35.603Z,13.65
2023-03-08T17:14:05.590Z,13.02
2023-03-08T17:16:33.234Z,15.95
2023-03-08T17:19:01.045Z,17.13
2023-03-08T17:21:29.303Z,15.40
2023-03-08T17:23:55.959Z,14.07
2023-03-08T17:26:23.186Z,15.20
2023-03-08T17:28:51.465Z,13.10
2023-03-08T17:31:21.060Z,15.68
2023-03-08T17:33:48.070Z,13.05
2023-03-08T17:36:15.669Z,16.05
2023-03-08T17:38:42.760Z,20.40
2023-03-08T17:41:12.671Z,14.63
2023-03-08T17:43:41.281Z,14.77
2023-03-08T17:46:20.108Z,14.82
2023-03-08T17:48:48.520Z,19.35
2023-03-08T17:51:17.748Z,18.60
2023-03-08T17:53:45.509Z,21.63
2023-03-08T17:56:17.579Z,17.80
2023-03-08T17:58:44.667Z,20.92
2023-03-08T18:01:19.379Z,16.05
2023-03-08T18:03:46.618Z,17.08
2023-03-08T18:06:37.916Z,17.02
2023-03-08T18:09:10.647Z,15.57
2023-03-08T18:11:37.862Z,22.75
2023-03-08T18:14:10.468Z,20.95
2023-03-08T18:16:37.472Z,20.48
2023-03-08T18:19:05.463Z,21.25
2023-03-08T18:21:34.049Z,18.65
2023-03-08T18:24:00.715Z,21.40
2023-03-08T18:26:27.839Z,19.83
2023-03-08T18:28:54.376Z,20.15
2023-03-08T18:31:25.862Z,23.15
2023-03-08T18:33:54.671Z,27.30
2023-03-08T18:36:22.415Z,22.33
2023-03-08T18:38:49.338Z,23.80
2023-03-08T18:41:23.054Z,29.27
2023-03-08T18:43:51.222Z,29.15
2023-03-08T18:46:18.019Z,27.25
2023-03-08T18:48:48.036Z,32.05
2023-03-08T18:51:16.516Z,23.08
2023-03-08T18:53:43.189Z,34.03
2023-03-08T18:56:09.764Z,34.20
2023-03-08T18:58:36.365Z,28.30
2023-03-08T19:01:10.362Z,24.00
2023-03-08T19:03:37.715Z,24.35
2023-03-08T19:06:05.215Z,26.35
2023-03-08T19:08:31.952Z,25.95
2023-03-08T19:10:59.288Z,24.33
2023-03-08T19:13:26.071Z,26.35
2023-03-08T19:15:52.679Z,23.17
2023-03-08T19:18:19.245Z,29.25
2023-03-08T19:20:45.776Z,26.58
2023-03-08T19:23:12.436Z,24.25
2023-03-08T19:25:57.276Z,24.90
2023-03-08T19:28:24.080Z,23.23
2023-03-08T19:30:50.622Z,20.70
2023-03-08T19:33:29.844Z,26.67
2023-03-08T19:35:57.409Z,21.50
2023-03-08T19:38:24.049Z,27.17
2023-03-08T19:40:50.831Z,24.02
2023-03-08T19:43:17.674Z,26.15
2023-03-08T19:45:50.817Z,59.25
2023-03-08T19:48:17.413Z,41.58
2023-03-08T19:50:45.305Z,28.90
2023-03-08T19:53:11.978Z,28.35
2023-03-08T19:55:38.547Z,29.60
2023-03-08T19:58:06.099Z,24.67
2023-03-08T20:00:32.808Z,28.95
2023-03-08T20:03:02.151Z,25.98
2023-03-08T20:05:28.770Z,26.15
2023-03-08T20:07:55.407Z,25.88
2023-03-08T20:10:22.054Z,25.38
2023-03-08T20:12:50.034Z,26.25
2023-03-08T20:15:16.823Z,27.02
2023-03-08T20:17:43.346Z,25.17
2023-03-08T20:20:11.314Z,25.30
2023-03-08T20:22:37.915Z,27.25
2023-03-08T20:25:05.136Z,31.25
2023-03-08T20:27:31.807Z,27.08
2023-03-08T20:29:58.344Z,26.73
2023-03-08T20:32:24.974Z,42.55
2023-03-08T20:34:51.592Z,31.25
2023-03-08T20:37:18.214Z,32.05
2023-03-08T20:39:44.802Z,32.95
2023-03-08T20:42:11.428Z,28.02
2023-03-08T20:44:37.976Z,34.63
2023-03-08T20:47:04.687Z,32.67
2023-03-08T20:49:31.270Z,35.53
2023-03-08T20:51:57.842Z,32.33
2023-03-08T20:54:24.395Z,41.40
2023-03-08T20:56:50.988Z,32.72
2023-03-08T20:59:20.243Z,34.90
2023-03-08T21:01:47.062Z,35.47
2023-03-08T21:04:13.656Z,37.63
2023-03-08T21:06:40.281Z,35.53
2023-03-08T21:09:06.844Z,37.67
2023-03-08T21:11:33.819Z,37.25
2023-03-08T21:14:00.485Z,47.55
2023-03-08T21:16:28.965Z,48.50
2023-03-08T21:19:00.814Z,47.42
2023-03-08T21:21:30.161Z,45.10
2023-03-08T21:23:58.770Z,55.28
2023-03-08T21:26:26.958Z,48.75
2023-03-08T21:28:56.738Z,48.67
2023-03-08T21:31:23.909Z,45.85
2023-03-08T21:33:50.797Z,45.42
2023-03-08T21:36:18.305Z,43.00
2023-03-08T21:38:45.144Z,41.95
2023-03-08T21:41:26.066Z,39.65
2023-03-08T21:43:52.875Z,42.33
2023-03-08T21:46:20.229Z,43.55
2023-03-08T21:48:47.418Z,43.35
2023-03-08T21:51:14.508Z,40.47
2023-03-08T21:53:42.069Z,41.97
2023-03-08T21:56:10.478Z,44.92
2023-03-08T21:58:37.723Z,38.85
2023-03-08T22:01:05.213Z,41.90
2023-03-08T22:03:33.344Z,43.78
2023-03-08T22:06:00.713Z,45.42
2023-03-08T22:08:27.422Z,46.33
2023-03-08T22:10:54.907Z,42.38
2023-03-08T22:13:21.757Z,46.28
2023-03-08T22:15:48.530Z,44.70
2023-03-08T22:18:15.252Z,44.72
2023-03-08T22:20:42.921Z,46.53
2023-03-08T22:23:09.592Z,44.53
2023-03-08T22:25:36.190Z,46.30
2023-03-08T22:28:02.723Z,47.10
2023-03-08T22:30:29.339Z,48.22
2023-03-08T22:32:55.985Z,49.95
2023-03-08T22:35:22.780Z,48.47
2023-03-08T22:37:50.077Z,49.47
2023-03-08T22:40:18.921Z,46.97
2023-03-08T22:42:46.362Z,46.53
2023-03-08T22:45:13.597Z,48.17
2023-03-08T22:47:40.281Z,50.58
2023-03-08T22:50:07.790Z,47.38
2023-03-08T22:52:34.397Z,53.85
2023-03-08T22:55:01.099Z,52.38
2023-03-08T22:57:27.705Z,52.13
2023-03-08T22:59:58.649Z,51.70
2023-03-08T23:02:25.695Z,51.42
2023-03-08T23:05:20.118Z,46.33
2023-03-08T23:07:46.873Z,50.45
2023-03-08T23:10:14.749Z,52.97
2023-03-08T23:12:41.430Z,49.20
2023-03-08T23:15:09.130Z,51.38
2023-03-08T23:17:35.858Z,50.55
2023-03-08T23:20:03.862Z,47.50
2023-03-08T23:22:30.479Z,48.47
2023-03-08T23:24:57.076Z,50.00
2023-03-08T23:27:23.612Z,52.88
2023-03-08T23:29:53.397Z,49.97
2023-03-08T23:32:20.246Z,52.97
2023-03-08T23:34:46.826Z,48.67
2023-03-08T23:37:13.688Z,52.35
2023-03-08T23:39:40.273Z,53.05
2023-03-08T23:42:06.897Z,53.30
2023-03-08T23:44:33.467Z,49.17
2023-03-08T23:47:00.047Z,50.67
2023-03-08T23:49:26.743Z,49.10
2023-03-08T23:51:53.274Z,51.22
2023-03-08T23:54:19.962Z,52.33
2023-03-08T23:56:46.620Z,52.92
2023-03-08T23:59:18.393Z,52.80
